createdAt,value
2023-02-25T00:00:35.818Z,4.47
2023-02-25T00:03:03.503Z,1.87
2023-02-25T00:05:32.009Z,8.17
2023-02-25T00:07:58.965Z,2.90
2023-02-25T00:10:25.686Z,5.00
2023-02-25T00:12:52.293Z,2.53
2023-02-25T00:15:19.877Z,3.57
2023-02-25T00:17:46.635Z,8.77
2023-02-25T00:20:14.034Z,4.10
2023-02-25T00:22:41.115Z,5.60
2023-02-25T00:25:09.137Z,4.50
2023-02-25T00:27:36.280Z,7.33
2023-02-25T00:30:03.517Z,5.90
2023-02-25T00:32:30.190Z,8.43
2023-02-25T00:34:57.501Z,3.27
2023-02-25T00:37:24.414Z,4.20
2023-02-25T00:39:50.929Z,3.83
2023-02-25T00:42:18.588Z,3.47
2023-02-25T00:44:50.171Z,4.93
2023-02-25T00:47:18.930Z,2.50
2023-02-25T00:49:47.897Z,2.90
2023-02-25T00:52:15.124Z,6.10
2023-02-25T00:54:41.767Z,4.83
2023-02-25T00:57:08.567Z,5.17
2023-02-25T00:59:35.081Z,4.47
2023-02-25T01:02:01.788Z,3.53
2023-02-25T01:04:28.364Z,4.23
2023-02-25T01:06:55.063Z,2.60
2023-02-25T01:09:21.648Z,3.00
2023-02-25T01:11:48.547Z,9.30
2023-02-25T01:14:19.513Z,2.13
2023-02-25T01:16:47.506Z,3.90
2023-02-25T01:19:19.800Z,3.97
2023-02-25T01:21:48.313Z,2.07
2023-02-25T01:24:27.843Z,5.10
2023-02-25T01:26:56.302Z,3.60
2023-02-25T01:29:34.827Z,5.00
2023-02-25T01:32:02.943Z,3.53
2023-02-25T01:34:30.348Z,6.23
2023-02-25T01:36:56.931Z,3.77
2023-02-25T01:39:25.875Z,4.90
2023-02-25T01:41:53.716Z,3.10
2023-02-25T01:44:28.730Z,5.00
2023-02-25T01:46:55.553Z,6.63
2023-02-25T01:49:25.016Z,3.27
2023-02-25T01:51:54.491Z,4.63
2023-02-25T01:54:21.180Z,4.28
2023-02-25T01:56:51.790Z,3.97
2023-02-25T01:59:19.191Z,5.80
2023-02-25T02:01:45.690Z,3.40
2023-02-25T02:04:13.613Z,5.85
2023-02-25T02:06:43.216Z,5.15
2023-02-25T02:09:13.859Z,8.93
2023-02-25T02:11:40.501Z,5.13
2023-02-25T02:14:09.231Z,9.57
2023-02-25T02:16:44.956Z,3.20
2023-02-25T02:19:39.937Z,8.90
2023-02-25T02:22:44.900Z,3.67
2023-02-25T02:25:17.217Z,5.27
2023-02-25T02:28:20.715Z,4.63
2023-02-25T02:31:08.353Z,4.30
2023-02-25T02:33:59.692Z,9.30
2023-02-25T02:36:44.471Z,9.37
2023-02-25T02:39:15.421Z,6.73
2023-02-25T02:41:47.416Z,4.73
2023-02-25T02:44:19.484Z,3.00
2023-02-25T02:46:53.866Z,5.90
2023-02-25T02:49:34.504Z,5.90
2023-02-25T02:52:04.587Z,2.63
2023-02-25T02:54:34.061Z,7.23
2023-02-25T02:57:01.396Z,3.23
2023-02-25T02:59:33.606Z,7.03
2023-02-25T03:02:06.641Z,3.17
2023-02-25T03:04:36.242Z,8.20
2023-02-25T03:07:05.433Z,4.23
2023-02-25T03:09:46.623Z,8.73
2023-02-25T03:12:13.249Z,3.37
2023-02-25T03:14:40.409Z,3.70
2023-02-25T03:17:12.533Z,4.67
2023-02-25T03:19:45.891Z,5.17
2023-02-25T03:22:28.108Z,4.57
2023-02-25T03:25:17.130Z,1.70
2023-02-25T03:27:45.096Z,3.07
2023-02-25T03:30:21.877Z,6.17
2023-02-25T03:32:54.306Z,4.30
2023-02-25T03:35:21.968Z,11.47
2023-02-25T03:37:51.574Z,2.40
2023-02-25T03:40:20.228Z,4.80
2023-02-25T03:42:53.595Z,3.57
2023-02-25T03:45:21.967Z,5.10
2023-02-25T03:47:49.026Z,4.27
2023-02-25T03:50:21.100Z,3.47
2023-02-25T03:52:47.948Z,3.10
2023-02-25T03:55:16.998Z,3.27
2023-02-25T03:57:45.034Z,2.73
2023-02-25T04:00:19.272Z,5.70
2023-02-25T04:02:47.171Z,3.30
2023-02-25T04:05:14.758Z,4.70
2023-02-25T04:07:41.368Z,3.23
2023-02-25T04:10:09.901Z,6.40
2023-02-25T04:12:37.048Z,2.60
2023-02-25T04:15:04.366Z,5.63
2023-02-25T04:17:31.056Z,8.03
2023-02-25T04:19:58.008Z,8.57
2023-02-25T04:22:24.790Z,4.33
2023-02-25T04:24:51.571Z,4.93
2023-02-25T04:27:18.093Z,5.63
2023-02-25T04:29:45.193Z,4.90
2023-02-25T04:32:12.129Z,5.00
2023-02-25T04:34:38.851Z,5.03
2023-02-25T04:37:05.746Z,4.97
2023-02-25T04:39:32.887Z,6.07
2023-02-25T04:41:59.577Z,6.57
2023-02-25T04:44:26.444Z,3.47
2023-02-25T04:46:53.094Z,7.37
2023-02-25T04:49:21.646Z,6.30
2023-02-25T04:51:52.063Z,7.33
2023-02-25T04:54:21.869Z,6.73
2023-02-25T04:56:48.997Z,11.67
2023-02-25T04:59:17.319Z,10.50
2023-02-25T05:01:44.057Z,12.93
2023-02-25T05:04:11.050Z,10.17
2023-02-25T05:06:39.119Z,12.13
2023-02-25T05:09:06.035Z,8.07
2023-02-25T05:11:32.679Z,22.03
2023-02-25T05:13:59.376Z,9.27
2023-02-25T05:16:26.640Z,11.13
2023-02-25T05:18:53.589Z,6.40
2023-02-25T05:21:22.890Z,13.30
2023-02-25T05:23:50.826Z,6.60
2023-02-25T05:26:21.806Z,7.00
2023-02-25T05:28:56.908Z,5.20
2023-02-25T05:31:25.042Z,7.73
2023-02-25T05:33:52.857Z,8.00
2023-02-25T05:36:19.596Z,9.17
2023-02-25T05:38:46.634Z,11.27
2023-02-25T05:41:13.551Z,12.10
2023-02-25T05:43:40.731Z,10.17
2023-02-25T05:46:11.696Z,10.87
2023-02-25T05:48:39.561Z,13.00
2023-02-25T05:51:12.696Z,10.57
2023-02-25T05:53:39.353Z,14.03
2023-02-25T05:56:11.717Z,14.00
2023-02-25T05:58:38.220Z,17.73
2023-02-25T06:01:13.740Z,11.83
2023-02-25T06:03:41.588Z,14.87
2023-02-25T06:06:08.332Z,13.93
2023-02-25T06:08:34.954Z,10.97
2023-02-25T06:11:02.258Z,15.60
2023-02-25T06:13:28.813Z,13.40
2023-02-25T06:15:55.376Z,7.17
2023-02-25T06:18:21.906Z,12.70
2023-02-25T06:20:48.430Z,6.63
2023-02-25T06:23:15.088Z,7.90
2023-02-25T06:25:41.628Z,4.87
2023-02-25T06:28:08.072Z,5.43
2023-02-25T06:30:34.593Z,9.83
2023-02-25T06:33:01.126Z,10.37
2023-02-25T06:35:27.747Z,11.10
2023-02-25T06:37:59.190Z,16.07
2023-02-25T06:40:27.547Z,14.07
2023-02-25T06:42:54.222Z,16.60
2023-02-25T06:45:20.827Z,21.90
2023-02-25T06:47:47.377Z,12.23
2023-02-25T06:50:14.418Z,15.00
2023-02-25T06:52:41.062Z,14.23
2023-02-25T06:55:08.150Z,17.33
2023-02-25T06:57:36.203Z,13.97
2023-02-25T07:00:05.594Z,21.57
2023-02-25T07:02:32.354Z,23.43
2023-02-25T07:05:00.417Z,22.20
2023-02-25T07:07:27.061Z,20.07
2023-02-25T07:09:53.565Z,24.10
2023-02-25T07:12:20.413Z,23.13
2023-02-25T07:14:47.035Z,17.20
2023-02-25T07:17:13.678Z,10.90
2023-02-25T07:19:40.196Z,20.23
2023-02-25T07:22:06.897Z,17.63
2023-02-25T07:24:33.431Z,24.30
2023-02-25T07:27:00.099Z,15.53
2023-02-25T07:29:26.612Z,5.83
2023-02-25T07:31:53.451Z,6.93
2023-02-25T07:34:20.138Z,9.50
2023-02-25T07:36:46.752Z,18.43
2023-02-25T07:39:13.350Z,5.33
2023-02-25T07:41:40.370Z,9.43
2023-02-25T07:44:07.303Z,8.73
2023-02-25T07:46:34.021Z,10.60
2023-02-25T07:49:00.672Z,9.30
2023-02-25T07:51:27.415Z,22.93
2023-02-25T07:53:57.749Z,12.83
2023-02-25T07:56:26.299Z,11.93
2023-02-25T07:58:52.976Z,25.60
2023-02-25T08:01:25.795Z,27.53
2023-02-25T08:03:54.115Z,15.13
2023-02-25T08:06:20.965Z,20.70
2023-02-25T08:08:48.088Z,14.10
2023-02-25T08:11:15.065Z,7.23
2023-02-25T08:13:41.602Z,20.27
2023-02-25T08:16:10.555Z,8.20
2023-02-25T08:18:37.640Z,13.13
2023-02-25T08:21:04.858Z,7.07
2023-02-25T08:23:31.911Z,10.43
2023-02-25T08:25:59.096Z,13.60
2023-02-25T08:28:26.848Z,30.13
2023-02-25T08:30:54.710Z,29.43
2023-02-25T08:33:21.556Z,12.13
2023-02-25T08:35:48.042Z,9.63
2023-02-25T08:38:14.556Z,11.30
2023-02-25T08:40:41.447Z,9.47
2023-02-25T08:43:08.886Z,15.87
2023-02-25T08:45:37.339Z,27.40
2023-02-25T08:48:04.965Z,13.30
2023-02-25T08:50:31.710Z,16.70
2023-02-25T08:52:58.360Z,12.43
2023-02-25T08:55:25.999Z,10.00
2023-02-25T08:57:53.374Z,17.33
2023-02-25T09:00:21.379Z,11.33
2023-02-25T09:02:49.522Z,8.40
2023-02-25T09:05:16.181Z,4.43
2023-02-25T09:07:42.766Z,5.07
2023-02-25T09:10:10.311Z,4.90
2023-02-25T09:12:40.751Z,9.00
2023-02-25T09:15:08.114Z,9.63
2023-02-25T09:17:34.657Z,9.50
2023-02-25T09:20:01.394Z,7.93
2023-02-25T09:22:28.589Z,13.60
2023-02-25T09:24:56.098Z,13.00
2023-02-25T09:27:22.633Z,7.87
2023-02-25T09:29:49.175Z,11.57
2023-02-25T09:32:20.292Z,7.57
2023-02-25T09:34:49.228Z,9.47
2023-02-25T09:37:17.091Z,8.47
2023-02-25T09:39:43.621Z,11.37
2023-02-25T09:42:16.790Z,8.73
2023-02-25T09:44:49.441Z,14.43
2023-02-25T09:47:21.869Z,7.77
2023-02-25T09:50:08.237Z,9.30
2023-02-25T09:52:42.734Z,9.90
2023-02-25T09:55:18.901Z,8.37
2023-02-25T09:57:54.400Z,7.33
2023-02-25T10:00:23.599Z,6.03
2023-02-25T10:03:25.922Z,9.23
2023-02-25T10:06:12.716Z,7.10
2023-02-25T10:09:07.339Z,8.17
2023-02-25T10:11:56.019Z,9.30
2023-02-25T10:14:28.301Z,6.90
2023-02-25T10:17:11.185Z,8.93
2023-02-25T10:19:40.569Z,13.60
2023-02-25T10:22:28.821Z,5.43
2023-02-25T10:25:19.836Z,7.77
2023-02-25T10:27:57.956Z,7.10
2023-02-25T10:30:50.810Z,16.03
2023-02-25T10:33:22.063Z,5.50
2023-02-25T10:35:49.587Z,4.57
2023-02-25T10:38:16.086Z,4.80
2023-02-25T10:40:43.033Z,9.80
2023-02-25T10:43:21.348Z,8.40
2023-02-25T10:45:51.397Z,7.67
2023-02-25T10:48:22.127Z,5.43
2023-02-25T10:51:10.088Z,5.43
2023-02-25T10:53:36.633Z,7.13
2023-02-25T10:56:03.942Z,8.90
2023-02-25T10:58:46.936Z,6.33
2023-02-25T11:01:20.130Z,9.67
2023-02-25T11:03:59.050Z,4.30
2023-02-25T11:06:30.214Z,7.50
2023-02-25T11:08:59.887Z,4.93
2023-02-25T11:11:32.511Z,8.60
2023-02-25T11:14:02.420Z,7.77
2023-02-25T11:16:31.547Z,12.37
2023-02-25T11:19:00.422Z,8.87
2023-02-25T11:21:38.074Z,12.30
2023-02-25T11:24:15.815Z,7.97
2023-02-25T11:26:45.587Z,9.10
2023-02-25T11:29:20.504Z,11.40
2023-02-25T11:32:04.686Z,7.53
2023-02-25T11:34:31.853Z,8.23
2023-02-25T11:37:36.059Z,14.03
2023-02-25T11:40:23.105Z,13.23
2023-02-25T11:43:06.325Z,4.53
2023-02-25T11:45:34.889Z,10.10
2023-02-25T11:48:04.395Z,9.30
2023-02-25T11:51:02.802Z,10.67
2023-02-25T11:53:38.502Z,8.23
2023-02-25T11:56:13.882Z,8.97
2023-02-25T11:59:29.707Z,6.03
2023-02-25T12:02:20.648Z,12.00
2023-02-25T12:05:05.366Z,9.80
2023-02-25T12:08:17.210Z,13.33
2023-02-25T12:10:49.868Z,5.63
2023-02-25T12:13:44.739Z,7.20
2023-02-25T12:16:32.055Z,7.67
2023-02-25T12:19:13.797Z,8.70
2023-02-25T12:21:58.608Z,12.53
2023-02-25T12:24:34.424Z,6.87
2023-02-25T12:27:25.650Z,10.73
2023-02-25T12:30:29.203Z,6.60
2023-02-25T12:33:01.603Z,9.70
2023-02-25T12:35:46.707Z,10.77
2023-02-25T12:38:51.684Z,5.20
2023-02-25T12:41:21.250Z,6.70
2023-02-25T12:43:53.169Z,7.03
2023-02-25T12:46:22.254Z,6.67
2023-02-25T12:49:14.225Z,6.23
2023-02-25T12:52:13.899Z,7.80
2023-02-25T12:55:06.957Z,5.47
2023-02-25T12:57:45.803Z,13.17
2023-02-25T13:00:33.891Z,6.80
2023-02-25T13:03:09.941Z,7.70
2023-02-25T13:06:03.081Z,10.23
2023-02-25T13:08:44.672Z,16.60
2023-02-25T13:11:18.780Z,9.60
2023-02-25T13:14:12.480Z,6.43
2023-02-25T13:17:05.122Z,4.60
2023-02-25T13:19:54.991Z,12.50
2023-02-25T13:22:33.709Z,6.60
2023-02-25T13:25:19.822Z,7.97
2023-02-25T13:28:08.413Z,5.80
2023-02-25T13:31:01.408Z,13.20
2023-02-25T13:33:58.067Z,10.23
2023-02-25T13:36:51.323Z,10.97
2023-02-25T13:39:40.022Z,16.37
2023-02-25T13:42:54.300Z,8.97
2023-02-25T13:45:35.802Z,11.93
2023-02-25T13:48:30.557Z,11.10
2023-02-25T13:51:30.523Z,13.73
2023-02-25T13:54:15.118Z,12.73
2023-02-25T13:57:00.194Z,6.70
2023-02-25T14:00:09.330Z,13.63
2023-02-25T14:02:40.245Z,8.00
2023-02-25T14:05:31.021Z,8.77
2023-02-25T14:08:02.145Z,8.30
2023-02-25T14:10:47.154Z,15.80
2023-02-25T14:13:16.639Z,4.83
2023-02-25T14:16:01.433Z,6.40
2023-02-25T14:19:03.526Z,8.10
2023-02-25T14:21:51.858Z,8.57
2023-02-25T14:24:29.616Z,17.10
2023-02-25T14:27:11.130Z,16.57
2023-02-25T14:30:03.880Z,32.23
2023-02-25T14:32:38.385Z,9.30
2023-02-25T14:35:07.785Z,9.07
2023-02-25T14:37:47.004Z,8.70
2023-02-25T14:40:34.449Z,15.33
2023-02-25T14:43:05.175Z,6.43
2023-02-25T14:45:36.456Z,9.23
2023-02-25T14:48:06.660Z,8.43
2023-02-25T14:50:43.883Z,7.10
2023-02-25T14:53:35.087Z,7.03
2023-02-25T14:56:13.973Z,9.03
2023-02-25T14:59:00.736Z,9.60
2023-02-25T15:01:38.738Z,11.30
2023-02-25T15:04:17.694Z,17.80
2023-02-25T15:07:02.423Z,10.17
2023-02-25T15:09:47.216Z,7.40
2023-02-25T15:12:27.233Z,11.23
2023-02-25T15:15:31.371Z,8.40
2023-02-25T15:18:19.351Z,11.57
2023-02-25T15:20:46.240Z,21.03
2023-02-25T15:23:19.887Z,7.10
2023-02-25T15:26:35.819Z,11.03
2023-02-25T15:29:02.634Z,13.30
2023-02-25T15:31:34.174Z,12.33
2023-02-25T15:34:23.368Z,10.50
2023-02-25T15:36:51.915Z,12.77
2023-02-25T15:39:40.401Z,13.07
2023-02-25T15:42:09.422Z,9.40
2023-02-25T15:44:37.492Z,9.03
2023-02-25T15:47:25.753Z,16.37
2023-02-25T15:49:53.382Z,16.77
2023-02-25T15:52:52.569Z,11.10
2023-02-25T15:55:30.382Z,10.50
2023-02-25T15:57:56.935Z,10.67
2023-02-25T16:00:51.105Z,11.03
2023-02-25T16:03:35.758Z,10.57
2023-02-25T16:06:12.007Z,15.60
2023-02-25T16:09:05.460Z,9.13
2023-02-25T16:11:45.545Z,10.10
2023-02-25T16:14:17.202Z,8.00
2023-02-25T16:16:57.562Z,12.83
2023-02-25T16:19:30.918Z,12.13
2023-02-25T16:22:00.763Z,17.93
2023-02-25T16:24:28.141Z,17.53
2023-02-25T16:27:06.476Z,9.37
2023-02-25T16:29:58.844Z,13.70
2023-02-25T16:33:21.480Z,20.40
2023-02-25T16:36:06.759Z,12.60
2023-02-25T16:38:34.028Z,13.83
2023-02-25T16:41:00.898Z,11.80
2023-02-25T16:43:32.493Z,14.80
2023-02-25T16:46:05.118Z,10.53
2023-02-25T16:48:37.464Z,18.83
2023-02-25T16:51:09.061Z,12.40
2023-02-25T16:53:35.700Z,8.37
2023-02-25T16:56:02.315Z,20.70
2023-02-25T16:58:30.633Z,9.70
2023-02-25T17:00:59.835Z,12.77
2023-02-25T17:03:31.113Z,11.53
2023-02-25T17:06:06.677Z,7.20
2023-02-25T17:08:35.093Z,15.30
2023-02-25T17:11:03.141Z,9.70
2023-02-25T17:13:36.074Z,11.97
2023-02-25T17:16:05.091Z,17.20
2023-02-25T17:18:41.928Z,12.60
2023-02-25T17:21:24.900Z,24.13
2023-02-25T17:23:52.289Z,19.87
2023-02-25T17:26:19.391Z,10.60
2023-02-25T17:28:49.705Z,9.43
2023-02-25T17:31:19.532Z,15.17
2023-02-25T17:33:49.566Z,16.00
2023-02-25T17:36:19.951Z,22.73
2023-02-25T17:38:46.813Z,18.03
2023-02-25T17:41:17.927Z,14.90
2023-02-25T17:43:44.869Z,15.20
2023-02-25T17:46:25.604Z,15.03
2023-02-25T17:48:55.643Z,15.37
2023-02-25T17:51:33.368Z,17.97
2023-02-25T17:54:05.722Z,10.07
2023-02-25T17:56:33.867Z,10.70
2023-02-25T17:59:04.885Z,12.23
2023-02-25T18:02:00.378Z,11.87
2023-02-25T18:04:41.293Z,15.07
2023-02-25T18:07:21.638Z,12.37
2023-02-25T18:09:49.096Z,13.50
2023-02-25T18:12:36.548Z,9.90
2023-02-25T18:15:18.883Z,10.63
2023-02-25T18:17:53.522Z,10.03
2023-02-25T18:20:31.366Z,12.87
2023-02-25T18:23:05.231Z,11.13
2023-02-25T18:25:38.398Z,13.33
2023-02-25T18:28:07.463Z,7.07
2023-02-25T18:30:34.077Z,13.70
2023-02-25T18:33:00.687Z,9.37
2023-02-25T18:35:28.515Z,14.07
2023-02-25T18:37:56.048Z,12.60
2023-02-25T18:40:29.814Z,15.03
2023-02-25T18:42:57.030Z,12.30
2023-02-25T18:45:25.899Z,9.60
2023-02-25T18:47:53.685Z,12.30
2023-02-25T18:50:21.062Z,14.27
2023-02-25T18:52:47.638Z,13.30
2023-02-25T18:55:20.224Z,8.97
2023-02-25T18:57:47.324Z,10.63
2023-02-25T19:00:15.675Z,9.93
2023-02-25T19:02:49.594Z,11.77
2023-02-25T19:05:17.765Z,13.00
2023-02-25T19:07:45.023Z,11.33
2023-02-25T19:10:16.462Z,18.60
2023-02-25T19:12:43.078Z,15.77
2023-02-25T19:15:14.094Z,16.87
2023-02-25T19:17:40.588Z,12.07
2023-02-25T19:20:08.363Z,15.13
2023-02-25T19:22:35.907Z,12.17
2023-02-25T19:25:02.471Z,15.90
2023-02-25T19:27:29.876Z,12.57
2023-02-25T19:29:59.016Z,10.70
2023-02-25T19:32:26.053Z,12.93
2023-02-25T19:34:52.638Z,10.90
2023-02-25T19:37:20.359Z,14.00
2023-02-25T19:39:47.015Z,20.27
2023-02-25T19:42:13.854Z,16.83
2023-02-25T19:44:40.318Z,19.23
2023-02-25T19:47:08.031Z,23.07
2023-02-25T19:49:34.509Z,16.23
2023-02-25T19:52:01.032Z,16.40
2023-02-25T19:54:27.680Z,16.33
2023-02-25T19:56:54.240Z,14.53
2023-02-25T19:59:21.098Z,11.70
2023-02-25T20:01:47.857Z,9.47
2023-02-25T20:04:14.355Z,7.40
2023-02-25T20:06:41.142Z,6.17
2023-02-25T20:09:09.310Z,7.33
2023-02-25T20:11:35.864Z,5.97
2023-02-25T20:14:03.955Z,12.70
2023-02-25T20:16:31.924Z,8.80
2023-02-25T20:18:58.562Z,4.17
2023-02-25T20:21:26.512Z,8.43
2023-02-25T20:23:53.543Z,6.20
2023-02-25T20:26:23.018Z,5.87
2023-02-25T20:28:52.475Z,4.67
2023-02-25T20:31:19.414Z,4.77
2023-02-25T20:33:48.804Z,4.33
2023-02-25T20:36:29.805Z,8.00
2023-02-25T20:39:02.571Z,7.63
2023-02-25T20:41:29.845Z,5.10
2023-02-25T20:43:56.548Z,5.57
2023-02-25T20:46:28.891Z,8.00
2023-02-25T20:48:55.949Z,5.47
2023-02-25T20:51:22.803Z,5.30
2023-02-25T20:53:49.558Z,6.43
2023-02-25T20:56:21.062Z,4.67
2023-02-25T20:58:47.807Z,6.57
2023-02-25T21:01:15.826Z,3.93
2023-02-25T21:03:42.640Z,7.40
2023-02-25T21:06:11.780Z,4.80
2023-02-25T21:08:38.549Z,3.90
2023-02-25T21:11:05.570Z,3.27
2023-02-25T21:13:32.321Z,5.27
2023-02-25T21:16:00.825Z,5.47
2023-02-25T21:18:28.159Z,2.83
2023-02-25T21:21:04.135Z,7.77
2023-02-25T21:23:31.321Z,5.10
2023-02-25T21:26:05.512Z,6.23
2023-02-25T21:28:32.353Z,6.90
2023-02-25T21:31:16.046Z,7.23
2023-02-25T21:33:43.151Z,6.50
2023-02-25T21:36:10.414Z,4.30
2023-02-25T21:38:37.333Z,6.60
2023-02-25T21:41:12.341Z,5.67
2023-02-25T21:43:39.747Z,6.60
2023-02-25T21:46:10.891Z,3.17
2023-02-25T21:48:39.036Z,5.17
2023-02-25T21:51:06.245Z,4.30
2023-02-25T21:53:33.576Z,5.00
2023-02-25T21:56:15.059Z,7.50
2023-02-25T21:58:41.797Z,6.37
2023-02-25T22:01:11.492Z,1.67
2023-02-25T22:03:38.184Z,6.57
2023-02-25T22:06:04.939Z,3.23
2023-02-25T22:08:31.730Z,4.93
2023-02-25T22:10:58.614Z,3.60
2023-02-25T22:13:25.969Z,4.53
2023-02-25T22:15:52.469Z,2.60
2023-02-25T22:18:19.065Z,2.20
2023-02-25T22:20:45.548Z,4.90
2023-02-25T22:23:12.211Z,3.83
2023-02-25T22:25:39.002Z,3.97
2023-02-25T22:28:05.579Z,3.23
2023-02-25T22:30:32.256Z,6.60
2023-02-25T22:32:58.856Z,4.97
2023-02-25T22:35:25.396Z,3.80
2023-02-25T22:37:51.957Z,2.10
2023-02-25T22:40:18.542Z,3.73
2023-02-25T22:42:45.181Z,4.77
2023-02-25T22:45:11.933Z,4.53
2023-02-25T22:47:38.408Z,7.73
2023-02-25T22:50:05.381Z,6.40
2023-02-25T22:52:31.868Z,4.40
2023-02-25T22:54:58.449Z,5.80
2023-02-25T22:57:25.060Z,6.20
2023-02-25T22:59:51.536Z,3.13
2023-02-25T23:02:18.099Z,5.47
2023-02-25T23:04:44.738Z,4.03
2023-02-25T23:07:12.274Z,5.83
2023-02-25T23:09:38.794Z,2.20
2023-02-25T23:12:05.763Z,3.10
2023-02-25T23:14:34.483Z,4.10
2023-02-25T23:17:01.042Z,3.67
2023-02-25T23:19:28.188Z,5.50
2023-02-25T23:21:54.718Z,4.93
2023-02-25T23:24:21.879Z,3.97
2023-02-25T23:26:50.880Z,2.90
2023-02-25T23:29:17.809Z,6.13
2023-02-25T23:31:47.062Z,3.37
2023-02-25T23:34:18.892Z,3.73
2023-02-25T23:36:45.517Z,6.30
2023-02-25T23:39:13.194Z,4.27
2023-02-25T23:41:39.954Z,3.87
2023-02-25T23:44:08.594Z,3.43
2023-02-25T23:46:35.831Z,4.97
2023-02-25T23:49:05.648Z,3.90
2023-02-25T23:51:32.241Z,6.00
2023-02-25T23:54:00.560Z,4.87
2023-02-25T23:56:28.020Z,10.07
2023-02-25T23:58:57.948Z,4.53
